Stations météo

Publicité
Dourbes, Belgique (6455): Température de l'air & dewpoint: 12.01.2018 13:00:00 - 18.01.2018 13:00:00 (CET)Dourbes, Belgique (6455): Vitesse du vent & gusts: 12.01.2018 13:00:00 - 18.01.2018 13:00:00 (CET)Dourbes, Belgique (6455): Direction du vent: 12.01.2018 13:00:00 - 18.01.2018 13:00:00 (CET)Dourbes, Belgique (6455): reduced air pressure: 12.01.2018 13:00:00 - 18.01.2018 13:00:00 (CET)Dourbes, Belgique (6455): Ensoleillement: 12.01.2018 13:00:00 - 18.01.2018 13:00:00 (CET)Dourbes, Belgique (6455): Quantités de précipitations: 12.01.2018 13:00:00 - 18.01.2018 13:00:00 (CET)
Date & Time tt [°C] td [°C] ff [km/h] ff [knt] fx [km/h] fx [knt] dd ppp [hPa] sd [min] rr [mm]
18.01.2018 13:00:00 - - - - - - - - - -
18.01.2018 12:00:00 8,8 4,3 21 11 59 32 W 1001,6 12 0,0
18.01.2018 11:00:00 9,6 4,9 18 10 63 34 W 1000,5 26 0,0
18.01.2018 10:00:00 9,3 7,5 24 13 66 36 WSW 998,5 0 0,0
18.01.2018 09:00:00 9,0 7,3 33 18 70 38 SW 997,2 0 0,0
18.01.2018 08:00:00 8,0 7,5 32 18 63 34 SSW 997,1 0 0,3
18.01.2018 07:00:00 6,9 6,7 29 16 60 32 SW 997,7 0 0,3
18.01.2018 06:00:00 5,4 5,1 24 13 62 34 SSW 999,6 0 0,2
18.01.2018 05:00:00 3,8 3,6 27 14 59 32 SSW 1000,8 0 1,0
18.01.2018 04:00:00 3,3 3,0 29 16 52 28 S 1003,5 0 1,5
18.01.2018 03:00:00 3,5 3,2 25 14 45 24 SSW 1005,6 0 0,5
18.01.2018 02:00:00 3,6 3,1 21 12 40 21 SSW 1007,6 0 0,5
18.01.2018 01:00:00 4,3 2,8 22 12 38 21 SW 1009,3 0 0,0
18.01.2018 00:00:00 3,9 2,5 12 6 31 17 SW 1010,1 0 0,1
17.01.2018 23:00:00 3,6 2,1 15 8 30 16 SW 1010,6 0 0,0
17.01.2018 22:00:00 3,1 1,6 14 7 26 14 SW 1011,0 0 0,1
17.01.2018 21:00:00 3,0 0,9 12 7 27 14 SW 1010,9 0 0,0
17.01.2018 20:00:00 3,1 0,7 14 7 28 15 SW 1011,0 0 0,0
17.01.2018 19:00:00 3,3 0,4 11 6 24 13 WSW 1011,0 0 0,0
17.01.2018 18:00:00 3,7 0,5 12 7 23 13 WSW 1010,7 0 0,0
17.01.2018 17:00:00 4,2 -0,3 13 7 52 28 W 1010,3 25 0,0
17.01.2018 16:00:00 5,6 -0,3 24 13 56 30 W 1009,1 45 0,0
17.01.2018 15:00:00 5,9 0,7 22 12 52 28 W 1008,1 16 0,0
17.01.2018 14:00:00 4,8 -0,1 16 8 42 23 W 1007,8 0 0,0
17.01.2018 13:00:00 4,2 0,0 18 10 39 21 W 1007,4 0 0,0
17.01.2018 12:00:00 3,5 -0,3 19 10 44 24 WSW 1006,8 0 0,0
17.01.2018 11:00:00 2,8 -0,7 16 9 39 21 WSW 1006,0 0 0,0
17.01.2018 10:00:00 2,2 -1,0 15 8 34 19 W 1005,0 2 0,0
17.01.2018 09:00:00 2,0 -1,3 15 8 39 21 W 1003,5 0 0,0
17.01.2018 08:00:00 1,2 0,2 13 7 29 15 WSW 1001,9 0 0,0
17.01.2018 07:00:00 1,4 0,4 11 6 28 15 WSW 1000,5 0 0,0
17.01.2018 06:00:00 2,0 0,2 14 8 51 27 WSW 999,5 0 0,0
17.01.2018 05:00:00 2,6 0,4 22 12 49 26 WSW 998,1 0 0,0
17.01.2018 04:00:00 2,9 1,4 17 9 43 23 SW 997,2 0 0,0
17.01.2018 03:00:00 - - - - - - - - - -
17.01.2018 02:00:00 - - - - - - - - - -
17.01.2018 01:00:00 2,3 1,6 14 8 37 20 SW 996,5 0 0,0
17.01.2018 00:00:00 2,9 2,2 18 10 42 23 WSW 996,5 0 0,0
16.01.2018 23:00:00 2,5 2,1 16 9 31 17 SSW 996,4 0 0,0
16.01.2018 22:00:00 3,1 2,2 18 10 42 23 SSW 996,9 0 0,4
16.01.2018 21:00:00 4,0 2,7 19 11 36 20 SW 997,4 0 0,0
16.01.2018 20:00:00 3,3 2,0 16 8 32 18 SW 997,5 0 0,0
16.01.2018 19:00:00 3,2 1,0 14 8 34 18 SW 997,6 0 0,0
16.01.2018 18:00:00 4,2 2,1 16 9 40 22 WSW 997,8 0 0,0
16.01.2018 17:00:00 5,3 2,8 21 12 39 21 SW 998,1 0 0,0
16.01.2018 16:00:00 5,4 2,7 14 7 37 20 WSW 997,7 0 0,0
16.01.2018 15:00:00 5,4 2,8 18 10 43 23 SW 997,5 18 0,0
16.01.2018 14:00:00 7,5 2,7 21 12 51 28 WSW 997,0 41 0,0
16.01.2018 13:00:00 6,6 3,0 22 12 44 24 W 997,8 0 0,0
16.01.2018 12:00:00 6,5 3,9 23 12 50 27 W 997,7 40 0,0
16.01.2018 11:00:00 5,5 4,2 16 8 38 21 WSW 997,4 23 0,0
16.01.2018 10:00:00 4,5 3,5 16 9 38 20 WSW 996,7 8 0,0
16.01.2018 09:00:00 4,1 3,4 16 9 53 28 SW 995,9 0 0,2
16.01.2018 08:00:00 5,4 5,2 14 7 42 23 WSW 995,5 0 2,5
16.01.2018 07:00:00 5,6 5,3 18 10 41 22 WSW 995,0 0 0,6
16.01.2018 06:00:00 5,4 5,2 16 8 34 19 WSW 995,3 0 0,3
16.01.2018 05:00:00 5,2 4,7 22 12 46 25 WSW 995,5 0 1,1
16.01.2018 04:00:00 5,8 5,4 21 12 45 25 SW 995,9 0 0,9
16.01.2018 03:00:00 5,7 5,0 15 8 36 20 W 996,9 0 0,1
16.01.2018 02:00:00 5,5 4,7 18 10 37 20 WSW 997,4 0 0,3
16.01.2018 01:00:00 5,9 5,1 18 10 38 20 WSW 998,2 0 0,0
16.01.2018 00:00:00 5,8 4,8 18 10 40 22 WSW 997,9 0 0,0
15.01.2018 23:00:00 6,0 5,2 13 7 58 32 WSW 997,2 0 0,9
15.01.2018 22:00:00 6,9 6,8 16 9 51 28 WSW 996,5 0 4,4
15.01.2018 21:00:00 7,1 7,0 22 12 50 27 SW 995,9 0 0,6
15.01.2018 20:00:00 6,4 6,3 31 17 57 31 SSW 995,6 0 0,5
15.01.2018 19:00:00 5,3 5,1 25 14 55 30 SSW 996,7 0 1,5
15.01.2018 18:00:00 4,5 4,1 29 15 71 39 S 998,0 0 2,0
15.01.2018 17:00:00 4,4 4,0 27 15 61 33 S 999,2 0 3,4
15.01.2018 16:00:00 4,6 4,0 32 18 61 33 S 1000,6 0 2,4
15.01.2018 15:00:00 4,9 4,3 25 14 59 32 S 1002,5 0 0,5
15.01.2018 14:00:00 5,2 4,0 33 18 72 39 SSW 1005,0 0 0,2
15.01.2018 13:00:00 5,4 3,8 29 16 63 34 S 1006,2 0 0,0
15.01.2018 12:00:00 4,9 4,0 27 15 52 28 S 1009,3 0 0,1
15.01.2018 11:00:00 4,9 3,9 22 12 40 22 SSW 1010,6 0 0,0
15.01.2018 10:00:00 4,5 3,6 17 9 46 25 S 1011,6 0 0,0
15.01.2018 09:00:00 4,0 3,6 20 11 40 21 S 1012,3 0 0,0
15.01.2018 08:00:00 3,4 3,1 21 12 41 22 S 1013,2 0 0,0
15.01.2018 07:00:00 3,0 2,8 14 8 29 15 SSW 1014,5 0 0,0
15.01.2018 06:00:00 2,4 2,2 16 9 29 16 S 1015,2 0 0,0
15.01.2018 05:00:00 3,2 2,5 11 6 25 14 SSW 1015,4 0 0,0
15.01.2018 04:00:00 3,1 2,1 8 5 19 10 S 1015,9 0 0,0
15.01.2018 03:00:00 2,5 1,2 5 3 16 9 S 1016,7 0 0,0
15.01.2018 02:00:00 3,0 1,2 10 6 20 11 S 1017,0 0 0,0
15.01.2018 01:00:00 2,9 0,9 14 8 24 13 SSE 1018,1 0 0,0
15.01.2018 00:00:00 3,1 0,9 13 7 24 13 SSE 1018,3 0 0,0
14.01.2018 23:00:00 3,0 0,8 10 6 22 12 SSE 1018,6 0 0,0
14.01.2018 22:00:00 3,2 0,7 9 5 23 13 SSE 1018,5 0 0,0
14.01.2018 21:00:00 3,5 0,9 14 7 26 14 SSE 1018,4 0 0,0
14.01.2018 20:00:00 3,7 0,9 10 6 21 12 SSE 1018,7 0 0,0
14.01.2018 19:00:00 3,8 0,9 14 8 24 13 SSE 1018,5 0 0,0
14.01.2018 18:00:00 4,1 1,0 12 7 23 12 SSE 1018,3 0 0,0
14.01.2018 17:00:00 4,7 0,9 10 5 22 12 SSE 1018,1 24 0,0
14.01.2018 16:00:00 6,3 1,5 9 5 21 11 S 1017,7 60 0,0
14.01.2018 15:00:00 6,3 1,6 10 6 26 14 SSE 1017,6 60 0,0
14.01.2018 14:00:00 5,5 1,5 12 7 24 13 SSE 1017,7 32 0,0
14.01.2018 13:00:00 5,3 1,5 11 6 16 9 SSE 1018,3 60 0,0
14.01.2018 12:00:00 4,0 0,9 9 5 29 15 SE 1018,5 60 0,0
14.01.2018 11:00:00 3,8 1,0 8 4 18 10 SE 1018,7 60 0,0
14.01.2018 10:00:00 1,9 0,6 8 4 14 8 E 1018,6 52 0,0
14.01.2018 09:00:00 0,7 -0,1 8 4 15 8 ENE 1018,3 0 0,0
14.01.2018 08:00:00 0,5 -0,3 7 4 15 8 E 1018,2 0 0,0
14.01.2018 07:00:00 0,8 -0,1 7 4 16 9 E 1017,8 0 0,0
14.01.2018 06:00:00 0,7 -0,1 8 4 18 10 ENE 1017,8 0 0,0
14.01.2018 05:00:00 0,8 -0,2 7 4 15 8 ENE 1018,0 0 0,0
14.01.2018 04:00:00 0,9 -0,1 7 4 15 8 ENE 1018,3 0 0,0
14.01.2018 03:00:00 1,4 0,1 7 4 15 8 ENE 1018,0 0 0,0
14.01.2018 02:00:00 1,7 0,1 8 4 15 8 E 1018,3 0 0,0
14.01.2018 01:00:00 1,9 0,1 7 4 16 9 E 1018,9 0 0,0
14.01.2018 00:00:00 2,3 0,2 8 5 19 11 E 1019,1 0 0,0
13.01.2018 23:00:00 2,7 0,3 9 5 21 12 E 1019,0 0 0,0
13.01.2018 22:00:00 3,2 0,5 8 4 23 12 E 1019,4 0 0,0
13.01.2018 21:00:00 4,0 0,8 9 5 22 12 E 1019,5 0 0,0
13.01.2018 20:00:00 4,0 0,9 9 5 22 12 E 1019,9 0 0,0
13.01.2018 19:00:00 3,8 0,6 7 4 16 9 E 1020,3 0 0,0
13.01.2018 18:00:00 - - - - - - - - - -
13.01.2018 17:00:00 3,6 0,6 14 8 29 16 ESE 1020,7 - -
13.01.2018 16:00:00 3,9 1,0 11 6 24 13 ESE 1021,1 0 0,0
13.01.2018 15:00:00 4,0 1,0 11 6 24 13 SE 1021,2 2 0,0
13.01.2018 14:00:00 3,7 1,2 14 8 34 19 ESE 1021,9 1 0,0
13.01.2018 13:00:00 3,2 1,3 14 8 30 16 ESE 1022,8 0 0,0
13.01.2018 12:00:00 3,4 1,9 10 5 22 12 SE 1023,7 0 0,0
13.01.2018 11:00:00 3,4 1,7 11 6 21 11 SE 1023,8 0 0,0
13.01.2018 10:00:00 3,2 1,9 6 3 12 6 SE 1023,7 0 0,0
13.01.2018 09:00:00 3,0 2,0 8 5 15 8 SE 1023,6 0 0,0
13.01.2018 08:00:00 2,5 2,4 8 4 14 8 E 1023,5 0 0,0
13.01.2018 07:00:00 2,3 2,3 4 2 10 5 E 1023,8 0 0,0
13.01.2018 06:00:00 2,4 2,4 5 3 10 6 E 1023,7 0 0,0
13.01.2018 05:00:00 2,6 2,6 5 3 11 6 ENE 1024,3 0 0,0
13.01.2018 04:00:00 2,9 2,9 4 2 11 6 E 1024,6 0 0,0
13.01.2018 03:00:00 3,0 3,0 4 2 12 7 E 1024,9 0 0,0
13.01.2018 02:00:00 3,1 3,1 6 3 16 8 E 1025,2 0 0,0
13.01.2018 01:00:00 3,2 3,2 4 2 13 7 E 1025,6 0 0,0
13.01.2018 00:00:00 3,3 3,2 4 2 11 6 E 1025,9 0 0,0
12.01.2018 23:00:00 3,6 3,4 5 3 10 6 E 1026,1 0 0,0
12.01.2018 22:00:00 3,9 3,6 4 2 15 8 E 1026,2 0 0,0
12.01.2018 21:00:00 4,3 3,9 7 4 15 8 E 1025,9 0 0,0
12.01.2018 20:00:00 4,7 4,3 5 3 11 6 ENE 1025,8 0 0,0
12.01.2018 19:00:00 4,9 4,6 7 4 14 8 NE 1025,5 0 0,0
12.01.2018 18:00:00 5,1 4,6 6 3 10 5 NNE 1025,4 0 0,0
12.01.2018 17:00:00 5,8 5,0 4 2 6 4 NE 1025,2 0 0,0
12.01.2018 16:00:00 6,3 5,3 4 2 7 4 NNE 1025,5 0 0,0
12.01.2018 15:00:00 6,2 5,3 4 2 8 4 N 1025,3 0 0,0
12.01.2018 14:00:00 5,9 5,8 4 2 9 5 NNE 1025,3 0 0,0
12.01.2018 13:00:00 5,6 5,6 4 2 10 5 E 1025,7 0 0,0

tt = Température de l'air
td = dewpoint
ff = Vitesse du vent
fx = gusts
dd = Direction du vent
ppp = reduced air pressure
sd = Ensoleillement
rr = Quantités de précipitations

stations d'obs. à proximité